createdAt,value
2019-05-09T00:02:24.308Z,2.80
2019-05-09T00:04:53.333Z,2.70
2019-05-09T00:07:23.310Z,2.80
2019-05-09T00:09:53.414Z,2.87
2019-05-09T00:12:23.787Z,2.20
2019-05-09T00:14:53.945Z,3.03
2019-05-09T00:17:23.609Z,2.87
2019-05-09T00:19:54.506Z,3.10
2019-05-09T00:22:24.072Z,2.80
2019-05-09T00:24:54.041Z,3.13
2019-05-09T00:27:23.396Z,3.10
2019-05-09T00:29:53.284Z,3.60
2019-05-09T00:32:34.070Z,3.20
2019-05-09T00:35:11.234Z,3.40
2019-05-09T00:37:48.601Z,3.00
2019-05-09T00:40:18.128Z,3.13
2019-05-09T00:42:47.389Z,3.17
2019-05-09T00:45:18.622Z,3.60
2019-05-09T00:47:47.908Z,2.80
2019-05-09T00:50:17.208Z,3.62
2019-05-09T00:52:46.470Z,3.27
2019-05-09T00:55:15.977Z,3.20
2019-05-09T00:57:45.504Z,3.57
2019-05-09T01:00:16.413Z,2.75
2019-05-09T01:02:45.940Z,3.40
2019-05-09T01:05:15.368Z,3.25
2019-05-09T01:07:44.862Z,2.83
2019-05-09T01:10:14.389Z,3.87
2019-05-09T01:12:44.644Z,3.00
2019-05-09T01:15:14.961Z,3.25
2019-05-09T01:17:44.310Z,2.72
2019-05-09T01:20:14.788Z,3.23
2019-05-09T01:22:44.142Z,3.35
2019-05-09T01:25:13.738Z,3.02
2019-05-09T01:27:43.231Z,3.20
2019-05-09T01:30:13.518Z,3.25
2019-05-09T01:32:56.125Z,3.55
2019-05-09T01:35:25.657Z,3.17
2019-05-09T01:37:54.940Z,3.40
2019-05-09T01:40:24.462Z,3.22
2019-05-09T01:42:53.864Z,3.07
2019-05-09T01:45:23.734Z,3.50
2019-05-09T01:47:53.854Z,3.58
2019-05-09T01:50:23.526Z,3.60
2019-05-09T01:52:53.419Z,4.70
2019-05-09T01:55:24.724Z,4.12
2019-05-09T01:57:54.312Z,4.05
2019-05-09T02:00:24.048Z,4.55
2019-05-09T02:02:54.185Z,4.90
2019-05-09T02:05:24.152Z,5.00
2019-05-09T02:07:54.210Z,4.17
2019-05-09T02:10:23.901Z,5.00
2019-05-09T02:12:53.777Z,4.55
2019-05-09T02:15:25.125Z,4.35
2019-05-09T02:18:05.400Z,4.65
2019-05-09T02:20:35.177Z,4.80
2019-05-09T02:23:04.461Z,4.60
2019-05-09T02:25:33.982Z,4.50
2019-05-09T02:28:03.555Z,3.87
2019-05-09T02:30:35.978Z,4.83
2019-05-09T02:33:05.113Z,5.47
2019-05-09T02:35:41.579Z,4.93
2019-05-09T02:38:09.131Z,5.50
2019-05-09T02:40:39.382Z,5.22
2019-05-09T02:43:09.923Z,5.33
2019-05-09T02:45:47.680Z,4.90
2019-05-09T02:48:14.243Z,4.80
2019-05-09T02:50:43.766Z,5.33
2019-05-09T02:53:13.061Z,6.30
2019-05-09T02:55:42.333Z,6.03
2019-05-09T02:58:13.481Z,4.97
2019-05-09T03:00:53.547Z,5.35
2019-05-09T03:03:24.730Z,5.90
2019-05-09T03:05:54.061Z,5.62
2019-05-09T03:08:23.572Z,4.60
2019-05-09T03:10:52.846Z,5.95
2019-05-09T03:13:22.149Z,5.05
2019-05-09T03:15:53.074Z,5.08
2019-05-09T03:18:22.367Z,4.80
2019-05-09T03:21:05.117Z,5.12
2019-05-09T03:23:34.456Z,5.10
2019-05-09T03:26:04.745Z,6.10
2019-05-09T03:28:38.884Z,5.58
2019-05-09T03:31:10.054Z,6.28
2019-05-09T03:33:40.711Z,6.05
2019-05-09T03:36:10.210Z,6.25
2019-05-09T03:38:39.516Z,6.22
2019-05-09T03:41:08.801Z,7.03
2019-05-09T03:43:38.106Z,7.35
2019-05-09T03:46:22.045Z,7.72
2019-05-09T03:48:52.980Z,7.28
2019-05-09T03:51:22.278Z,7.22
2019-05-09T03:53:51.555Z,7.62
2019-05-09T03:56:22.461Z,6.35
2019-05-09T03:58:52.973Z,6.95
2019-05-09T04:01:22.245Z,7.60
2019-05-09T04:03:51.540Z,7.70
2019-05-09T04:06:21.775Z,6.85
2019-05-09T04:08:53.943Z,7.62
2019-05-09T04:11:22.520Z,8.15
2019-05-09T04:13:53.432Z,6.83
2019-05-09T04:16:22.713Z,8.43
2019-05-09T04:18:52.261Z,7.65
2019-05-09T04:21:21.784Z,7.33
2019-05-09T04:23:51.237Z,8.20
2019-05-09T04:26:34.112Z,7.53
2019-05-09T04:29:03.755Z,8.53
2019-05-09T04:31:33.017Z,7.03
2019-05-09T04:34:02.312Z,7.30
2019-05-09T04:36:40.277Z,7.72
2019-05-09T04:39:18.953Z,7.05
2019-05-09T04:41:44.573Z,8.00
2019-05-09T04:44:19.278Z,7.75
2019-05-09T04:46:48.059Z,7.28
2019-05-09T04:49:19.097Z,8.35
2019-05-09T04:51:48.481Z,7.72
2019-05-09T04:54:18.106Z,6.62
2019-05-09T04:56:47.666Z,7.87
2019-05-09T04:59:17.960Z,6.78
2019-05-09T05:02:01.154Z,6.75
2019-05-09T05:04:30.429Z,6.78
2019-05-09T05:07:00.692Z,6.37
2019-05-09T05:09:30.189Z,6.67
2019-05-09T05:11:59.473Z,6.90
2019-05-09T05:14:29.918Z,6.65
2019-05-09T05:17:07.595Z,5.65
2019-05-09T05:19:31.509Z,6.20
2019-05-09T05:22:02.633Z,6.50
2019-05-09T05:24:33.541Z,5.92
2019-05-09T05:27:02.826Z,5.30
2019-05-09T05:29:32.354Z,6.17
2019-05-09T05:32:03.523Z,5.60
2019-05-09T05:34:37.814Z,6.08
2019-05-09T05:37:07.600Z,6.62
2019-05-09T05:39:37.640Z,5.55
2019-05-09T05:42:08.269Z,5.40
2019-05-09T05:44:38.578Z,5.13
2019-05-09T05:47:09.916Z,5.80
2019-05-09T05:49:39.164Z,5.10
2019-05-09T05:52:08.704Z,5.40
2019-05-09T05:54:38.067Z,5.63
2019-05-09T05:57:08.420Z,5.10
2019-05-09T05:59:40.757Z,5.53
2019-05-09T06:02:08.983Z,4.83
2019-05-09T06:04:38.418Z,5.00
2019-05-09T06:07:08.294Z,5.23
2019-05-09T06:09:38.177Z,4.40
2019-05-09T06:12:08.417Z,4.63
2019-05-09T06:14:38.900Z,4.77
2019-05-09T06:17:09.393Z,4.60
2019-05-09T06:19:38.945Z,5.07
2019-05-09T06:22:08.546Z,4.53
2019-05-09T06:24:39.161Z,4.70
2019-05-09T06:27:10.307Z,4.47
2019-05-09T06:29:39.402Z,4.10
2019-05-09T06:32:08.701Z,4.60
2019-05-09T06:34:41.760Z,5.13
2019-05-09T06:37:09.391Z,4.43
2019-05-09T06:39:38.731Z,4.10
2019-05-09T06:42:09.147Z,4.10
2019-05-09T06:44:58.316Z,3.60
2019-05-09T06:47:29.150Z,3.67
2019-05-09T06:50:00.299Z,2.80
2019-05-09T06:52:29.593Z,3.37
2019-05-09T06:54:58.962Z,2.90
2019-05-09T06:57:28.493Z,2.50
2019-05-09T06:59:58.099Z,2.50
2019-05-09T07:02:29.117Z,2.83
2019-05-09T07:05:00.050Z,1.90
2019-05-09T07:07:32.010Z,2.03
2019-05-09T07:10:07.453Z,2.20
2019-05-09T07:12:37.958Z,2.00
2019-05-09T07:15:08.848Z,1.93
2019-05-09T07:17:38.795Z,1.87
2019-05-09T07:20:08.745Z,1.87
2019-05-09T07:22:40.001Z,2.13
2019-05-09T07:25:11.478Z,2.20
2019-05-09T07:27:42.464Z,2.53
2019-05-09T07:30:15.277Z,1.83
2019-05-09T07:32:58.760Z,2.00
2019-05-09T07:35:28.056Z,1.63
2019-05-09T07:37:58.007Z,1.70
2019-05-09T07:40:30.413Z,1.53
2019-05-09T07:42:58.637Z,1.60
2019-05-09T07:45:28.266Z,1.47
2019-05-09T07:47:58.331Z,1.67
2019-05-09T07:50:27.909Z,1.50
2019-05-09T07:52:58.200Z,1.37
2019-05-09T07:55:27.697Z,1.47
2019-05-09T07:57:59.130Z,1.70
2019-05-09T08:00:35.478Z,1.73
2019-05-09T08:03:04.859Z,1.60
2019-05-09T08:05:34.314Z,2.00
2019-05-09T08:08:07.990Z,1.53
2019-05-09T08:10:38.639Z,1.70
2019-05-09T08:13:11.524Z,1.40
2019-05-09T08:15:38.946Z,1.50
2019-05-09T08:18:08.615Z,1.67
2019-05-09T08:20:40.681Z,1.80
2019-05-09T08:23:09.273Z,1.67
2019-05-09T08:25:38.555Z,1.70
2019-05-09T08:28:09.152Z,1.40
2019-05-09T08:30:40.308Z,1.67
2019-05-09T08:33:10.032Z,1.53
2019-05-09T08:35:39.296Z,1.87
2019-05-09T08:38:08.805Z,1.13
2019-05-09T08:40:39.060Z,1.40
2019-05-09T08:43:08.330Z,1.30
2019-05-09T08:45:38.379Z,0.90
2019-05-09T08:48:09.466Z,1.50
2019-05-09T08:50:40.577Z,1.27
2019-05-09T08:53:09.841Z,1.37
2019-05-09T08:55:39.141Z,1.50
2019-05-09T08:58:08.423Z,1.53
2019-05-09T09:00:39.117Z,1.60
2019-05-09T09:03:08.709Z,1.90
2019-05-09T09:05:38.343Z,2.10
2019-05-09T09:08:08.533Z,2.37
2019-05-09T09:10:38.658Z,2.90
2019-05-09T09:13:09.039Z,2.60
2019-05-09T09:18:10.425Z,1.90
2019-05-09T09:20:39.737Z,1.77
2019-05-09T09:23:09.372Z,2.10
2019-05-09T09:25:39.202Z,2.43
2019-05-09T09:28:09.064Z,2.30
2019-05-09T09:30:39.069Z,2.70
2019-05-09T09:33:13.729Z,2.53
2019-05-09T09:35:40.838Z,2.47
2019-05-09T09:38:11.086Z,2.40
2019-05-09T09:40:40.590Z,1.90
2019-05-09T09:43:09.871Z,2.40
2019-05-09T09:45:39.132Z,2.10
2019-05-09T09:48:09.121Z,2.17
2019-05-09T09:50:38.801Z,1.90
2019-05-09T09:53:09.017Z,1.50
2019-05-09T09:55:38.802Z,2.23
2019-05-09T09:58:08.490Z,1.93
2019-05-09T10:00:54.048Z,1.80
2019-05-09T10:03:23.665Z,1.47
2019-05-09T10:05:52.942Z,1.20
2019-05-09T10:08:22.217Z,1.23
2019-05-09T10:10:51.488Z,1.33
2019-05-09T10:13:21.051Z,1.00
2019-05-09T10:15:58.723Z,1.30
2019-05-09T10:18:37.991Z,0.87
2019-05-09T10:21:08.426Z,1.07
2019-05-09T10:23:37.974Z,0.87
2019-05-09T10:26:08.569Z,1.00
2019-05-09T10:28:38.152Z,0.97
2019-05-09T10:31:08.129Z,0.90
2019-05-09T10:33:37.659Z,0.83
2019-05-09T10:36:08.472Z,0.87
2019-05-09T10:38:38.761Z,0.60
2019-05-09T10:41:11.176Z,0.90
2019-05-09T10:43:43.506Z,0.77
2019-05-09T10:46:47.609Z,0.80
2019-05-09T10:49:08.015Z,0.80
2019-05-09T10:51:36.010Z,0.60
2019-05-09T10:54:07.839Z,0.57
2019-05-09T10:56:38.399Z,0.53
2019-05-09T10:59:07.978Z,0.50
2019-05-09T11:01:38.107Z,0.60
2019-05-09T11:04:08.358Z,0.60
2019-05-09T11:06:38.407Z,0.37
2019-05-09T11:09:09.635Z,0.60
2019-05-09T11:11:39.262Z,0.40
2019-05-09T11:14:08.913Z,0.40
2019-05-09T11:16:45.741Z,0.43
2019-05-09T11:19:10.389Z,0.50
2019-05-09T11:21:39.886Z,0.90
2019-05-09T11:24:09.177Z,0.90
2019-05-09T11:26:39.866Z,0.60
2019-05-09T11:29:09.548Z,0.80
2019-05-09T11:31:39.058Z,0.60
2019-05-09T11:34:09.038Z,0.60
2019-05-09T11:36:38.361Z,0.50
2019-05-09T11:39:10.593Z,0.50
2019-05-09T11:41:39.789Z,0.67
2019-05-09T11:44:09.295Z,0.60
2019-05-09T11:46:38.574Z,0.50
2019-05-09T11:49:08.527Z,0.50
2019-05-09T11:51:38.066Z,0.40
2019-05-09T11:54:09.123Z,0.40
2019-05-09T11:56:38.595Z,0.63
2019-05-09T11:59:08.154Z,0.50
2019-05-09T12:01:39.740Z,0.53
2019-05-09T12:04:08.985Z,0.50
2019-05-09T12:06:38.532Z,0.50
2019-05-09T12:09:09.055Z,0.80
2019-05-09T12:11:43.538Z,0.50
2019-05-09T12:14:09.674Z,0.63
2019-05-09T12:16:39.921Z,0.70
2019-05-09T12:19:09.429Z,0.67
2019-05-09T12:21:47.127Z,0.83
2019-05-09T12:24:09.913Z,0.60
2019-05-09T12:26:39.382Z,0.63
2019-05-09T12:29:08.847Z,0.90
2019-05-09T12:31:38.847Z,0.67
2019-05-09T12:34:09.059Z,0.70
2019-05-09T12:36:39.735Z,0.60
2019-05-09T12:39:09.645Z,0.50
2019-05-09T12:41:38.937Z,0.70
2019-05-09T12:44:08.844Z,0.60
2019-05-09T12:46:39.655Z,0.50
2019-05-09T12:49:09.158Z,0.60
2019-05-09T12:51:38.490Z,0.50
2019-05-09T12:54:08.572Z,0.57
2019-05-09T12:56:38.608Z,0.50
2019-05-09T12:59:08.819Z,0.57
2019-05-09T13:01:40.606Z,0.63
2019-05-09T13:04:09.921Z,0.50
2019-05-09T13:06:39.266Z,0.50
2019-05-09T13:09:08.573Z,0.60
2019-05-09T13:11:39.063Z,0.70
2019-05-09T13:14:10.278Z,0.60
2019-05-09T13:16:52.392Z,0.63
2019-05-09T13:19:39.721Z,0.50
2019-05-09T13:22:09.004Z,0.77
2019-05-09T13:24:38.522Z,0.80
2019-05-09T13:27:08.170Z,0.67
2019-05-09T13:29:38.165Z,0.70
2019-05-09T13:32:08.757Z,0.70
2019-05-09T13:34:38.613Z,0.50
2019-05-09T13:37:09.133Z,0.67
2019-05-09T13:39:39.770Z,0.50
2019-05-09T13:42:09.532Z,0.60
2019-05-09T13:44:41.441Z,0.80
2019-05-09T13:47:11.023Z,0.80
2019-05-09T13:49:40.559Z,0.90
2019-05-09T13:52:10.311Z,0.97
2019-05-09T13:54:39.961Z,1.10
2019-05-09T13:57:09.260Z,1.40
2019-05-09T13:59:38.590Z,1.40
2019-05-09T14:02:08.821Z,1.20
2019-05-09T14:04:39.583Z,1.10
2019-05-09T14:07:09.238Z,0.90
2019-05-09T14:09:38.909Z,0.90
2019-05-09T14:12:09.312Z,0.60
2019-05-09T14:14:39.417Z,0.67
2019-05-09T14:17:13.024Z,0.77
2019-05-09T14:19:45.991Z,0.50
2019-05-09T14:22:10.666Z,0.87
2019-05-09T14:24:39.995Z,0.60
2019-05-09T14:27:09.277Z,1.07
2019-05-09T14:29:38.581Z,0.63
2019-05-09T14:32:07.880Z,0.57
2019-05-09T14:34:38.221Z,0.63
2019-05-09T14:37:09.654Z,0.60
2019-05-09T14:39:54.404Z,0.53
2019-05-09T14:42:10.510Z,0.50
2019-05-09T14:44:40.014Z,0.67
2019-05-09T14:47:09.571Z,0.60
2019-05-09T14:49:44.014Z,0.60
2019-05-09T14:52:10.296Z,0.40
2019-05-09T14:54:39.798Z,1.00
2019-05-09T14:57:10.049Z,0.87
2019-05-09T14:59:39.397Z,0.50
2019-05-09T15:02:09.226Z,0.40
2019-05-09T15:04:39.489Z,0.50
2019-05-09T15:07:08.773Z,0.40
2019-05-09T15:09:38.066Z,0.50
2019-05-09T15:12:07.362Z,1.90
2019-05-09T15:14:38.319Z,0.63
2019-05-09T15:17:08.861Z,1.10
2019-05-09T15:19:38.757Z,0.83
2019-05-09T15:22:08.700Z,0.50
2019-05-09T15:24:38.954Z,0.67
2019-05-09T15:27:08.373Z,0.60
2019-05-09T15:29:39.094Z,0.40
2019-05-09T15:32:12.141Z,0.40
2019-05-09T15:34:40.737Z,0.40
2019-05-09T15:37:10.021Z,0.60
2019-05-09T15:39:39.288Z,0.70
2019-05-09T15:42:08.556Z,0.57
2019-05-09T15:44:38.083Z,0.83
2019-05-09T15:47:11.914Z,0.73
2019-05-09T15:49:41.185Z,0.60
2019-05-09T15:52:10.456Z,0.70
2019-05-09T15:54:39.727Z,0.60
2019-05-09T15:57:09.009Z,0.73
2019-05-09T15:59:39.509Z,0.90
2019-05-09T16:02:09.306Z,0.77
2019-05-09T16:04:40.147Z,0.70
2019-05-09T16:07:09.833Z,0.70
2019-05-09T16:09:39.101Z,0.97
2019-05-09T16:12:08.387Z,1.23
2019-05-09T16:14:38.154Z,1.00
2019-05-09T16:17:07.926Z,1.20
2019-05-09T16:19:38.514Z,1.67
2019-05-09T16:22:08.105Z,1.20
2019-05-09T16:24:38.140Z,1.13
2019-05-09T16:27:08.503Z,0.80
2019-05-09T16:29:38.338Z,1.47
2019-05-09T16:32:08.830Z,1.07
2019-05-09T16:34:39.193Z,1.00
2019-05-09T16:37:08.461Z,0.87
2019-05-09T16:39:37.965Z,0.90
2019-05-09T16:42:07.432Z,1.10
2019-05-09T16:44:37.717Z,0.90
2019-05-09T16:47:08.344Z,0.90
2019-05-09T16:49:38.647Z,1.57
2019-05-09T16:52:08.167Z,1.27
2019-05-09T16:54:39.326Z,1.40
2019-05-09T16:57:08.606Z,1.03
2019-05-09T16:59:39.073Z,1.00
2019-05-09T17:02:18.848Z,1.40
2019-05-09T17:04:39.809Z,2.03
2019-05-09T17:07:09.150Z,1.80
2019-05-09T17:09:41.507Z,1.10
2019-05-09T17:12:10.778Z,1.03
2019-05-09T17:14:40.093Z,0.90
2019-05-09T17:17:09.370Z,1.50
2019-05-09T17:19:38.965Z,1.10
2019-05-09T17:22:15.831Z,1.00
2019-05-09T17:24:48.237Z,1.20
2019-05-09T17:27:18.799Z,1.60
2019-05-09T17:29:48.094Z,1.30
2019-05-09T17:32:18.281Z,2.33
2019-05-09T17:34:47.744Z,1.37
2019-05-09T17:37:17.830Z,1.20
2019-05-09T17:39:47.242Z,1.20
2019-05-09T17:42:18.265Z,1.70
2019-05-09T17:44:48.830Z,1.80
2019-05-09T17:47:18.557Z,1.07
2019-05-09T17:49:48.397Z,1.33
2019-05-09T17:52:18.372Z,1.20
2019-05-09T17:54:48.529Z,1.30
2019-05-09T17:57:18.824Z,1.60
2019-05-09T17:59:48.982Z,1.27
2019-05-09T18:02:18.375Z,0.90
2019-05-09T18:04:48.131Z,1.40
2019-05-09T18:07:18.203Z,1.10
2019-05-09T18:09:48.418Z,1.10
2019-05-09T18:12:18.970Z,0.97
2019-05-09T18:14:48.389Z,1.30
2019-05-09T18:17:18.101Z,1.33
2019-05-09T18:19:47.682Z,1.17
2019-05-09T18:22:18.564Z,1.17
2019-05-09T18:24:48.350Z,1.50
2019-05-09T18:27:18.320Z,1.20
2019-05-09T18:29:47.663Z,1.30
2019-05-09T18:32:22.481Z,1.90
2019-05-09T18:34:53.381Z,1.20
2019-05-09T18:37:22.662Z,1.50
2019-05-09T18:39:51.934Z,1.20
2019-05-09T18:42:21.289Z,1.10
2019-05-09T18:44:50.786Z,1.33
2019-05-09T18:47:20.057Z,1.43
2019-05-09T18:49:49.625Z,1.77
2019-05-09T18:52:18.905Z,1.17
2019-05-09T18:54:48.367Z,1.80
2019-05-09T18:57:17.632Z,4.10
2019-05-09T18:59:46.901Z,4.00
2019-05-09T19:02:16.173Z,3.90
2019-05-09T19:04:45.674Z,6.20
2019-05-09T19:07:22.615Z,4.43
2019-05-09T19:09:46.221Z,4.40
2019-05-09T19:12:15.736Z,4.83
2019-05-09T19:14:46.268Z,5.50
2019-05-09T19:17:33.738Z,5.77
2019-05-09T19:20:10.817Z,5.40
2019-05-09T19:22:41.074Z,5.33
2019-05-09T19:25:10.637Z,5.37
2019-05-09T19:27:39.922Z,5.00
2019-05-09T19:30:09.429Z,4.27
2019-05-09T19:32:38.709Z,3.23
2019-05-09T19:35:08.728Z,3.20
2019-05-09T19:37:38.030Z,2.70
2019-05-09T19:40:07.871Z,3.13
2019-05-09T19:42:37.370Z,2.53
2019-05-09T19:45:08.185Z,2.87
2019-05-09T19:47:37.472Z,3.07
2019-05-09T19:50:07.202Z,2.97
2019-05-09T19:52:38.655Z,2.50
2019-05-09T19:55:07.918Z,3.00
2019-05-09T19:57:37.187Z,3.30
2019-05-09T20:00:07.509Z,3.87
2019-05-09T20:02:37.157Z,3.47
2019-05-09T20:05:07.082Z,4.57
2019-05-09T20:07:36.666Z,5.07
2019-05-09T20:10:11.913Z,5.50
2019-05-09T20:12:58.769Z,5.33
2019-05-09T20:15:29.026Z,5.10
2019-05-09T20:17:58.296Z,5.67
2019-05-09T20:20:27.569Z,5.60
2019-05-09T20:22:56.872Z,6.27
2019-05-09T20:25:26.198Z,6.17
2019-05-09T20:27:55.750Z,7.27
2019-05-09T20:30:25.036Z,7.40
2019-05-09T20:32:54.331Z,8.47
2019-05-09T20:35:23.664Z,9.23
2019-05-09T20:37:53.465Z,10.60
2019-05-09T20:40:23.939Z,9.90
2019-05-09T20:42:53.637Z,10.37
2019-05-09T20:45:23.352Z,10.57
2019-05-09T20:47:53.118Z,10.60
2019-05-09T20:50:22.593Z,10.97
2019-05-09T20:53:07.252Z,12.10
2019-05-09T20:55:23.685Z,12.20
2019-05-09T20:57:53.164Z,12.33
2019-05-09T21:00:22.798Z,13.23
2019-05-09T21:02:52.282Z,12.83
2019-05-09T21:05:21.770Z,12.27
2019-05-09T21:07:51.297Z,11.70
2019-05-09T21:10:20.872Z,12.50
2019-05-09T21:12:50.739Z,12.17
2019-05-09T21:15:20.439Z,12.23
2019-05-09T21:17:49.898Z,12.63
2019-05-09T21:20:19.365Z,13.00
2019-05-09T21:22:48.836Z,11.60
2019-05-09T21:25:18.605Z,14.87
2019-05-09T21:27:48.303Z,13.73
2019-05-09T21:30:18.431Z,14.23
2019-05-09T21:32:47.889Z,14.97
2019-05-09T21:35:17.238Z,12.97
2019-05-09T21:37:46.517Z,15.03
2019-05-09T21:40:16.941Z,14.13
2019-05-09T21:42:46.216Z,16.73
2019-05-09T21:45:15.910Z,17.30
2019-05-09T21:47:45.191Z,19.17
2019-05-09T21:50:15.661Z,20.07
2019-05-09T21:52:45.238Z,17.50
2019-05-09T21:55:14.594Z,18.83
2019-05-09T21:57:43.945Z,17.70
2019-05-09T22:00:23.366Z,17.87
2019-05-09T22:02:54.549Z,18.13
2019-05-09T22:05:24.334Z,17.90
2019-05-09T22:07:53.924Z,15.80
2019-05-09T22:10:23.193Z,15.73
2019-05-09T22:12:52.497Z,15.90
2019-05-09T22:15:21.848Z,15.90
2019-05-09T22:17:51.122Z,15.83
2019-05-09T22:20:20.846Z,14.27
2019-05-09T22:22:50.135Z,15.60
2019-05-09T22:25:19.705Z,16.70
2019-05-09T22:27:49.004Z,14.90
2019-05-09T22:30:18.623Z,16.70
2019-05-09T22:32:48.146Z,15.20
2019-05-09T22:35:17.557Z,16.03
2019-05-09T22:37:46.840Z,16.50
2019-05-09T22:40:16.620Z,17.40
2019-05-09T22:42:45.901Z,17.70
2019-05-09T22:45:15.645Z,17.40
2019-05-09T22:47:44.937Z,16.40
2019-05-09T22:50:14.346Z,16.10
2019-05-09T22:52:43.633Z,16.03
2019-05-09T22:55:14.053Z,14.77
2019-05-09T22:57:43.345Z,16.53
2019-05-09T23:00:13.158Z,14.93
2019-05-09T23:02:44.129Z,16.47
2019-05-09T23:05:13.481Z,15.73
2019-05-09T23:07:42.769Z,13.87
2019-05-09T23:10:12.127Z,15.23
2019-05-09T23:12:42.384Z,12.43
2019-05-09T23:15:13.670Z,13.00
2019-05-09T23:17:42.957Z,13.60
2019-05-09T23:20:14.339Z,12.00
2019-05-09T23:22:43.813Z,13.00
2019-05-09T23:25:13.165Z,11.67
2019-05-09T23:27:42.684Z,12.50
2019-05-09T23:30:13.405Z,12.23
2019-05-09T23:32:44.333Z,10.43
2019-05-09T23:35:13.685Z,10.17
2019-05-09T23:37:42.974Z,11.27
2019-05-09T23:40:12.389Z,9.20
2019-05-09T23:42:41.672Z,11.47
2019-05-09T23:45:11.310Z,9.40
2019-05-09T23:47:40.593Z,9.50
2019-05-09T23:50:10.230Z,9.70
2019-05-09T23:52:39.509Z,9.27
2019-05-09T23:55:26.585Z,9.10
2019-05-09T23:58:14.814Z,10.27
